sensor_id;sensor_type;location;lat;lon;timestamp;pressure;altitude;pressure_sealevel;temperature;humidity
55990;BME280;41875;55.806;38.082;2023-04-28T00:00:06;98832.88;;;14.96;51.32
55990;BME280;41875;55.806;38.082;2023-04-28T00:02:35;98847.94;;;14.48;52.68
55990;BME280;41875;55.806;38.082;2023-04-28T00:05:06;98840.03;;;14.20;53.65
55990;BME280;41875;55.806;38.082;2023-04-28T00:07:34;98833.97;;;14.40;53.24
55990;BME280;41875;55.806;38.082;2023-04-28T00:10:03;98836.03;;;14.58;52.95
55990;BME280;41875;55.806;38.082;2023-04-28T00:12:32;98832.81;;;14.69;52.44
55990;BME280;41875;55.806;38.082;2023-04-28T00:15:00;98829.91;;;14.64;52.41
55990;BME280;41875;55.806;38.082;2023-04-28T00:17:30;98835.78;;;14.32;53.35
55990;BME280;41875;55.806;38.082;2023-04-28T00:19:59;98839.81;;;14.15;53.66
55990;BME280;41875;55.806;38.082;2023-04-28T00:22:30;98835.88;;;14.04;53.96
55990;BME280;41875;55.806;38.082;2023-04-28T00:24:58;98840.56;;;13.95;54.03
55990;BME280;41875;55.806;38.082;2023-04-28T00:27:27;98840.25;;;14.18;53.69
55990;BME280;41875;55.806;38.082;2023-04-28T00:29:56;98827.00;;;14.45;53.03
55990;BME280;41875;55.806;38.082;2023-04-28T00:32:24;98829.47;;;14.54;53.00
55990;BME280;41875;55.806;38.082;2023-04-28T00:34:52;98829.47;;;14.60;52.70
55990;BME280;41875;55.806;38.082;2023-04-28T00:37:21;98829.19;;;15.11;51.50
55990;BME280;41875;55.806;38.082;2023-04-28T00:39:55;98836.06;;;14.64;52.54
55990;BME280;41875;55.806;38.082;2023-04-28T00:42:23;98828.69;;;14.60;52.89
55990;BME280;41875;55.806;38.082;2023-04-28T00:44:52;98837.69;;;14.52;52.77
55990;BME280;41875;55.806;38.082;2023-04-28T00:47:21;98836.38;;;14.28;53.44
55990;BME280;41875;55.806;38.082;2023-04-28T00:49:50;98834.09;;;14.18;53.60
55990;BME280;41875;55.806;38.082;2023-04-28T00:52:20;98830.91;;;13.87;54.69
55990;BME280;41875;55.806;38.082;2023-04-28T00:54:48;98849.84;;;13.71;55.50
55990;BME280;41875;55.806;38.082;2023-04-28T00:57:18;98840.72;;;13.52;56.17
55990;BME280;41875;55.806;38.082;2023-04-28T00:59:47;98838.47;;;13.84;55.43
55990;BME280;41875;55.806;38.082;2023-04-28T01:02:19;98845.25;;;13.58;56.25
55990;BME280;41875;55.806;38.082;2023-04-28T01:04:47;98834.44;;;14.08;55.09
55990;BME280;41875;55.806;38.082;2023-04-28T01:07:20;98844.00;;;13.89;55.18
55990;BME280;41875;55.806;38.082;2023-04-28T01:09:50;98839.69;;;13.88;55.25
55990;BME280;41875;55.806;38.082;2023-04-28T01:12:25;98831.03;;;13.79;55.66
55990;BME280;41875;55.806;38.082;2023-04-28T01:14:55;98833.56;;;13.87;55.45
55990;BME280;41875;55.806;38.082;2023-04-28T01:17:25;98832.50;;;13.82;55.68
55990;BME280;41875;55.806;38.082;2023-04-28T01:19:54;98831.94;;;13.93;55.17
55990;BME280;41875;55.806;38.082;2023-04-28T01:22:23;98825.19;;;13.91;55.23
55990;BME280;41875;55.806;38.082;2023-04-28T01:24:52;98829.53;;;14.05;54.88
55990;BME280;41875;55.806;38.082;2023-04-28T01:27:22;98833.34;;;13.89;55.33
55990;BME280;41875;55.806;38.082;2023-04-28T01:29:50;98838.59;;;14.11;53.93
55990;BME280;41875;55.806;38.082;2023-04-28T01:32:22;98833.16;;;13.91;55.16
55990;BME280;41875;55.806;38.082;2023-04-28T01:34:51;98842.94;;;13.83;55.50
55990;BME280;41875;55.806;38.082;2023-04-28T01:37:19;98842.34;;;13.88;55.41
55990;BME280;41875;55.806;38.082;2023-04-28T01:39:50;98837.22;;;13.80;55.68
55990;BME280;41875;55.806;38.082;2023-04-28T01:42:20;98839.88;;;13.80;55.62
55990;BME280;41875;55.806;38.082;2023-04-28T01:44:49;98832.50;;;13.82;55.60
55990;BME280;41875;55.806;38.082;2023-04-28T01:47:20;98834.69;;;13.71;56.05
55990;BME280;41875;55.806;38.082;2023-04-28T01:49:49;98832.94;;;13.85;55.77
55990;BME280;41875;55.806;38.082;2023-04-28T01:52:20;98832.22;;;14.05;54.86
55990;BME280;41875;55.806;38.082;2023-04-28T01:54:53;98840.41;;;14.10;54.76
55990;BME280;41875;55.806;38.082;2023-04-28T01:57:23;98843.50;;;14.14;54.67
55990;BME280;41875;55.806;38.082;2023-04-28T01:59:52;98836.13;;;14.16;54.67
55990;BME280;41875;55.806;38.082;2023-04-28T02:02:20;98841.34;;;14.44;53.73
55990;BME280;41875;55.806;38.082;2023-04-28T02:04:49;98837.88;;;14.44;54.03
55990;BME280;41875;55.806;38.082;2023-04-28T02:07:20;98847.53;;;14.52;53.52
55990;BME280;41875;55.806;38.082;2023-04-28T02:09:49;98846.38;;;14.94;52.70
55990;BME280;41875;55.806;38.082;2023-04-28T02:12:20;98846.19;;;15.16;51.87
55990;BME280;41875;55.806;38.082;2023-04-28T02:14:51;98841.03;;;15.62;50.57
55990;BME280;41875;55.806;38.082;2023-04-28T02:17:19;98832.31;;;16.00;49.69
55990;BME280;41875;55.806;38.082;2023-04-28T02:19:53;98829.84;;;16.05;49.39
55990;BME280;41875;55.806;38.082;2023-04-28T02:22:22;98832.66;;;16.17;48.97
55990;BME280;41875;55.806;38.082;2023-04-28T02:24:51;98834.22;;;16.38;48.53
55990;BME280;41875;55.806;38.082;2023-04-28T02:27:20;98829.25;;;17.06;47.14
55990;BME280;41875;55.806;38.082;2023-04-28T02:29:48;98816.38;;;18.03;44.55
55990;BME280;41875;55.806;38.082;2023-04-28T02:32:21;98816.28;;;17.91;44.76
55990;BME280;41875;55.806;38.082;2023-04-28T02:34:52;98826.81;;;17.48;45.60
55990;BME280;41875;55.806;38.082;2023-04-28T02:37:22;98832.44;;;17.84;45.08
55990;BME280;41875;55.806;38.082;2023-04-28T02:39:50;98828.28;;;19.34;41.87
55990;BME280;41875;55.806;38.082;2023-04-28T02:42:21;98830.13;;;17.25;46.00
55990;BME280;41875;55.806;38.082;2023-04-28T02:44:49;98823.38;;;17.23;46.48
55990;BME280;41875;55.806;38.082;2023-04-28T02:47:22;98824.09;;;16.72;47.64
55990;BME280;41875;55.806;38.082;2023-04-28T02:49:50;98833.47;;;16.18;49.14
55990;BME280;41875;55.806;38.082;2023-04-28T02:52:19;98838.69;;;15.99;49.92
55990;BME280;41875;55.806;38.082;2023-04-28T02:54:47;98841.59;;;15.77;50.58
55990;BME280;41875;55.806;38.082;2023-04-28T02:57:20;98845.94;;;15.58;51.39
55990;BME280;41875;55.806;38.082;2023-04-28T02:59:49;98843.09;;;15.53;51.73
55990;BME280;41875;55.806;38.082;2023-04-28T03:02:19;98845.78;;;15.46;51.86
55990;BME280;41875;55.806;38.082;2023-04-28T03:04:51;98846.97;;;15.50;51.99
55990;BME280;41875;55.806;38.082;2023-04-28T03:07:20;98845.97;;;15.45;51.89
55990;BME280;41875;55.806;38.082;2023-04-28T03:09:48;98839.72;;;15.91;51.34
55990;BME280;41875;55.806;38.082;2023-04-28T03:12:16;98845.41;;;16.15;50.10
55990;BME280;41875;55.806;38.082;2023-04-28T03:14:45;98839.47;;;16.52;48.66
55990;BME280;41875;55.806;38.082;2023-04-28T03:17:16;98854.06;;;16.04;50.11
55990;BME280;41875;55.806;38.082;2023-04-28T03:19:45;98844.94;;;15.32;52.05
55990;BME280;41875;55.806;38.082;2023-04-28T03:22:15;98846.69;;;16.44;49.50
55990;BME280;41875;55.806;38.082;2023-04-28T03:24:44;98857.06;;;16.27;49.44
55990;BME280;41875;55.806;38.082;2023-04-28T03:27:12;98856.03;;;15.49;51.61
55990;BME280;41875;55.806;38.082;2023-04-28T03:29:41;98846.38;;;15.55;51.58
55990;BME280;41875;55.806;38.082;2023-04-28T03:32:09;98857.84;;;15.62;51.57
55990;BME280;41875;55.806;38.082;2023-04-28T03:34:38;98858.91;;;15.21;52.61
55990;BME280;41875;55.806;38.082;2023-04-28T03:37:07;98868.97;;;14.92;53.66
55990;BME280;41875;55.806;38.082;2023-04-28T03:39:41;98874.94;;;15.14;53.23
55990;BME280;41875;55.806;38.082;2023-04-28T03:42:10;98868.75;;;15.20;52.92
55990;BME280;41875;55.806;38.082;2023-04-28T03:44:44;98871.22;;;15.15;53.25
55990;BME280;41875;55.806;38.082;2023-04-28T03:47:17;98865.69;;;14.97;53.77
55990;BME280;41875;55.806;38.082;2023-04-28T03:49:46;98873.91;;;15.02;53.75
55990;BME280;41875;55.806;38.082;2023-04-28T03:52:14;98868.50;;;14.75;54.76
55990;BME280;41875;55.806;38.082;2023-04-28T03:54:44;98868.03;;;14.64;55.11
55990;BME280;41875;55.806;38.082;2023-04-28T03:57:13;98872.25;;;15.07;54.20
55990;BME280;41875;55.806;38.082;2023-04-28T03:59:44;98874.91;;;15.01;54.41
55990;BME280;41875;55.806;38.082;2023-04-28T04:02:13;98876.53;;;15.55;53.00
55990;BME280;41875;55.806;38.082;2023-04-28T04:04:41;98868.78;;;16.26;51.14
55990;BME280;41875;55.806;38.082;2023-04-28T04:07:10;98878.34;;;16.02;51.86
55990;BME280;41875;55.806;38.082;2023-04-28T04:09:39;98873.00;;;16.86;49.62
55990;BME280;41875;55.806;38.082;2023-04-28T04:12:10;98867.75;;;17.05;49.27
55990;BME280;41875;55.806;38.082;2023-04-28T04:14:38;98865.66;;;17.32;48.63
55990;BME280;41875;55.806;38.082;2023-04-28T04:17:08;98865.78;;;17.19;49.13
55990;BME280;41875;55.806;38.082;2023-04-28T04:19:37;98874.41;;;17.46;48.49
55990;BME280;41875;55.806;38.082;2023-04-28T04:22:05;98860.00;;;17.22;49.09
55990;BME280;41875;55.806;38.082;2023-04-28T04:24:34;98869.34;;;16.81;50.60
55990;BME280;41875;55.806;38.082;2023-04-28T04:27:03;98873.91;;;17.56;48.67
55990;BME280;41875;55.806;38.082;2023-04-28T04:29:39;98877.94;;;18.58;46.21
55990;BME280;41875;55.806;38.082;2023-04-28T04:32:12;98878.03;;;18.52;46.55
55990;BME280;41875;55.806;38.082;2023-04-28T04:34:41;98883.41;;;18.52;46.61
55990;BME280;41875;55.806;38.082;2023-04-28T04:37:11;98877.88;;;18.96;45.87
55990;BME280;41875;55.806;38.082;2023-04-28T04:39:45;98874.47;;;18.70;46.31
55990;BME280;41875;55.806;38.082;2023-04-28T04:42:14;98883.75;;;18.86;46.27
55990;BME280;41875;55.806;38.082;2023-04-28T04:45:16;98886.13;;;19.72;43.77
55990;BME280;41875;55.806;38.082;2023-04-28T04:47:45;98882.09;;;19.03;45.75
55990;BME280;41875;55.806;38.082;2023-04-28T04:50:14;98889.81;;;19.24;45.07
55990;BME280;41875;55.806;38.082;2023-04-28T04:52:44;98894.13;;;18.82;46.47
55990;BME280;41875;55.806;38.082;2023-04-28T04:55:12;98893.56;;;19.82;43.73
55990;BME280;41875;55.806;38.082;2023-04-28T04:57:41;98890.56;;;18.70;46.05
55990;BME280;41875;55.806;38.082;2023-04-28T05:00:46;98886.31;;;19.35;44.91
55990;BME280;41875;55.806;38.082;2023-04-28T05:03:15;98885.09;;;20.67;41.89
55990;BME280;41875;55.806;38.082;2023-04-28T05:05:44;98893.28;;;20.31;42.77
55990;BME280;41875;55.806;38.082;2023-04-28T05:08:30;98888.19;;;20.18;42.94
55990;BME280;41875;55.806;38.082;2023-04-28T05:10:58;98898.63;;;20.43;42.39
55990;BME280;41875;55.806;38.082;2023-04-28T05:13:28;98904.19;;;20.24;43.01
55990;BME280;41875;55.806;38.082;2023-04-28T05:16:02;98894.06;;;21.01;41.34
55990;BME280;41875;55.806;38.082;2023-04-28T05:18:47;98894.53;;;20.40;42.19
55990;BME280;41875;55.806;38.082;2023-04-28T05:21:17;98890.66;;;19.72;43.43
55990;BME280;41875;55.806;38.082;2023-04-28T05:23:47;98916.69;;;19.47;44.56
55990;BME280;41875;55.806;38.082;2023-04-28T05:26:16;98913.56;;;20.10;42.99
55990;BME280;41875;55.806;38.082;2023-04-28T05:28:44;98916.31;;;18.89;45.56
55990;BME280;41875;55.806;38.082;2023-04-28T05:31:15;98913.91;;;19.00;45.99
55990;BME280;41875;55.806;38.082;2023-04-28T05:33:43;98915.06;;;19.58;44.22
55990;BME280;41875;55.806;38.082;2023-04-28T05:36:13;98917.16;;;19.44;44.27
55990;BME280;41875;55.806;38.082;2023-04-28T05:38:44;98915.81;;;18.50;46.60
55990;BME280;41875;55.806;38.082;2023-04-28T05:41:13;98923.66;;;19.13;45.86
55990;BME280;41875;55.806;38.082;2023-04-28T05:43:41;98925.94;;;18.67;46.60
55990;BME280;41875;55.806;38.082;2023-04-28T05:46:10;98930.78;;;18.39;47.29
55990;BME280;41875;55.806;38.082;2023-04-28T05:48:56;98924.03;;;19.28;45.27
55990;BME280;41875;55.806;38.082;2023-04-28T05:51:28;98932.75;;;19.12;45.64
55990;BME280;41875;55.806;38.082;2023-04-28T05:53:56;98926.97;;;19.50;44.49
55990;BME280;41875;55.806;38.082;2023-04-28T05:56:27;98925.97;;;19.99;43.34
55990;BME280;41875;55.806;38.082;2023-04-28T05:58:57;98936.47;;;19.77;44.14
55990;BME280;41875;55.806;38.082;2023-04-28T06:01:30;98940.06;;;18.74;46.69
55990;BME280;41875;55.806;38.082;2023-04-28T06:03:59;98935.88;;;18.78;46.73
55990;BME280;41875;55.806;38.082;2023-04-28T06:06:29;98936.56;;;19.04;46.08
55990;BME280;41875;55.806;38.082;2023-04-28T06:09:01;98929.50;;;19.22;46.05
55990;BME280;41875;55.806;38.082;2023-04-28T06:11:31;98943.75;;;18.42;47.75
55990;BME280;41875;55.806;38.082;2023-04-28T06:14:00;98934.44;;;18.26;48.72
55990;BME280;41875;55.806;38.082;2023-04-28T06:16:29;98925.84;;;18.85;46.89
55990;BME280;41875;55.806;38.082;2023-04-28T06:18:57;98916.81;;;19.41;45.89
55990;BME280;41875;55.806;38.082;2023-04-28T06:21:28;98916.81;;;19.41;45.57
55990;BME280;41875;55.806;38.082;2023-04-28T06:23:58;98915.69;;;19.06;46.38
55990;BME280;41875;55.806;38.082;2023-04-28T06:26:28;98914.81;;;18.94;46.66
55990;BME280;41875;55.806;38.082;2023-04-28T06:28:56;98919.19;;;19.07;46.41
55990;BME280;41875;55.806;38.082;2023-04-28T06:31:25;98923.00;;;19.41;46.08
55990;BME280;41875;55.806;38.082;2023-04-28T06:33:53;98919.72;;;20.34;44.40
55990;BME280;41875;55.806;38.082;2023-04-28T06:36:22;98920.78;;;20.21;43.99
55990;BME280;41875;55.806;38.082;2023-04-28T06:38:52;98922.63;;;20.33;43.82
55990;BME280;41875;55.806;38.082;2023-04-28T06:41:20;98922.75;;;21.59;41.03
55990;BME280;41875;55.806;38.082;2023-04-28T06:43:51;98924.25;;;21.67;40.66
55990;BME280;41875;55.806;38.082;2023-04-28T06:46:30;98915.22;;;22.39;39.13
55990;BME280;41875;55.806;38.082;2023-04-28T06:49:00;98922.38;;;22.29;39.12
55990;BME280;41875;55.806;38.082;2023-04-28T06:51:30;98933.56;;;21.13;41.84
55990;BME280;41875;55.806;38.082;2023-04-28T06:54:00;98931.31;;;21.56;41.58
55990;BME280;41875;55.806;38.082;2023-04-28T06:56:28;98932.16;;;20.64;43.46
55990;BME280;41875;55.806;38.082;2023-04-28T06:58:57;98937.31;;;19.89;45.15
55990;BME280;41875;55.806;38.082;2023-04-28T07:01:26;98933.16;;;20.75;42.77
55990;BME280;41875;55.806;38.082;2023-04-28T07:03:54;98934.88;;;22.57;40.12
55990;BME280;41875;55.806;38.082;2023-04-28T07:06:23;98941.59;;;22.77;38.64
55990;BME280;41875;55.806;38.082;2023-04-28T07:08:53;98940.81;;;23.69;37.10
55990;BME280;41875;55.806;38.082;2023-04-28T07:11:23;98938.84;;;23.59;37.17
55990;BME280;41875;55.806;38.082;2023-04-28T07:13:51;98937.47;;;23.56;37.66
55990;BME280;41875;55.806;38.082;2023-04-28T07:16:19;98938.84;;;22.99;38.34
55990;BME280;41875;55.806;38.082;2023-04-28T07:18:48;98936.75;;;23.66;36.80
55990;BME280;41875;55.806;38.082;2023-04-28T07:21:17;98929.19;;;24.11;35.92
55990;BME280;41875;55.806;38.082;2023-04-28T07:23:45;98942.84;;;23.51;37.09
55990;BME280;41875;55.806;38.082;2023-04-28T07:26:15;98930.91;;;23.47;36.66
55990;BME280;41875;55.806;38.082;2023-04-28T07:28:44;98934.78;;;23.56;36.96
55990;BME280;41875;55.806;38.082;2023-04-28T07:31:13;98935.28;;;22.93;38.34
55990;BME280;41875;55.806;38.082;2023-04-28T07:33:41;98930.09;;;23.19;37.58
55990;BME280;41875;55.806;38.082;2023-04-28T07:36:11;98928.97;;;22.60;37.81
55990;BME280;41875;55.806;38.082;2023-04-28T07:38:40;98923.56;;;21.42;40.17
55990;BME280;41875;55.806;38.082;2023-04-28T07:41:09;98929.06;;;21.01;41.63
55990;BME280;41875;55.806;38.082;2023-04-28T07:43:38;98928.47;;;20.82;42.07
55990;BME280;41875;55.806;38.082;2023-04-28T07:46:08;98942.59;;;20.49;43.87
55990;BME280;41875;55.806;38.082;2023-04-28T07:48:37;98938.00;;;19.97;45.37
55990;BME280;41875;55.806;38.082;2023-04-28T07:51:05;98941.75;;;19.95;45.38
55990;BME280;41875;55.806;38.082;2023-04-28T07:53:35;98939.97;;;19.65;47.00
55990;BME280;41875;55.806;38.082;2023-04-28T07:56:04;98939.94;;;20.37;44.72
55990;BME280;41875;55.806;38.082;2023-04-28T07:58:32;98937.63;;;20.58;44.92
55990;BME280;41875;55.806;38.082;2023-04-28T08:01:01;98942.06;;;20.64;45.00
55990;BME280;41875;55.806;38.082;2023-04-28T08:03:30;98942.69;;;20.54;45.45
55990;BME280;41875;55.806;38.082;2023-04-28T08:05:59;98941.25;;;19.99;46.06
55990;BME280;41875;55.806;38.082;2023-04-28T08:08:28;98950.16;;;20.64;44.70
55990;BME280;41875;55.806;38.082;2023-04-28T08:10:56;98936.06;;;20.45;45.15
55990;BME280;41875;55.806;38.082;2023-04-28T08:13:25;98936.28;;;20.43;45.68
55990;BME280;41875;55.806;38.082;2023-04-28T08:15:54;98940.66;;;19.85;47.03
55990;BME280;41875;55.806;38.082;2023-04-28T08:18:23;98937.97;;;20.20;46.68
55990;BME280;41875;55.806;38.082;2023-04-28T08:20:53;98940.53;;;20.15;46.25
55990;BME280;41875;55.806;38.082;2023-04-28T08:23:21;98937.72;;;21.04;45.17
55990;BME280;41875;55.806;38.082;2023-04-28T08:25:53;98941.88;;;20.94;45.31
55990;BME280;41875;55.806;38.082;2023-04-28T08:28:22;98934.50;;;21.36;44.98
55990;BME280;41875;55.806;38.082;2023-04-28T08:30:50;98942.53;;;21.47;44.36
55990;BME280;41875;55.806;38.082;2023-04-28T08:33:19;98936.56;;;21.45;44.24
55990;BME280;41875;55.806;38.082;2023-04-28T08:35:47;98937.72;;;20.34;46.58
55990;BME280;41875;55.806;38.082;2023-04-28T08:38:17;98937.44;;;20.88;45.67
55990;BME280;41875;55.806;38.082;2023-04-28T08:40:47;98932.47;;;20.68;45.66
55990;BME280;41875;55.806;38.082;2023-04-28T08:43:15;98927.41;;;21.46;44.22
55990;BME280;41875;55.806;38.082;2023-04-28T08:45:43;98934.03;;;21.39;44.20
55990;BME280;41875;55.806;38.082;2023-04-28T08:48:14;98925.31;;;19.38;49.12
55990;BME280;41875;55.806;38.082;2023-04-28T08:50:47;98923.66;;;19.13;50.13
55990;BME280;41875;55.806;38.082;2023-04-28T08:53:20;98920.50;;;20.47;47.30
55990;BME280;41875;55.806;38.082;2023-04-28T08:55:49;98928.28;;;19.72;48.86
55990;BME280;41875;55.806;38.082;2023-04-28T08:58:18;98926.06;;;20.16;47.94
55990;BME280;41875;55.806;38.082;2023-04-28T09:00:47;98924.41;;;19.68;49.45
55990;BME280;41875;55.806;38.082;2023-04-28T09:03:15;98919.88;;;20.56;47.35
55990;BME280;41875;55.806;38.082;2023-04-28T09:05:44;98922.47;;;21.26;46.01
55990;BME280;41875;55.806;38.082;2023-04-28T09:08:12;98930.53;;;20.92;47.29
55990;BME280;41875;55.806;38.082;2023-04-28T09:10:42;98926.72;;;22.30;44.75
55990;BME280;41875;55.806;38.082;2023-04-28T09:13:11;98927.09;;;21.60;45.54
55990;BME280;41875;55.806;38.082;2023-04-28T09:15:51;98935.41;;;22.15;44.46
55990;BME280;41875;55.806;38.082;2023-04-28T09:18:26;98922.75;;;21.76;45.10
55990;BME280;41875;55.806;38.082;2023-04-28T09:21:01;98933.34;;;22.89;42.54
55990;BME280;41875;55.806;38.082;2023-04-28T09:23:30;98920.63;;;21.44;45.41
55990;BME280;41875;55.806;38.082;2023-04-28T09:26:01;98916.69;;;21.52;45.45
55990;BME280;41875;55.806;38.082;2023-04-28T09:28:29;98921.66;;;20.80;47.20
55990;BME280;41875;55.806;38.082;2023-04-28T09:30:58;98922.84;;;20.84;46.85
55990;BME280;41875;55.806;38.082;2023-04-28T09:33:29;98918.41;;;20.49;48.37
55990;BME280;41875;55.806;38.082;2023-04-28T09:35:57;98926.94;;;20.46;49.02
55990;BME280;41875;55.806;38.082;2023-04-28T09:38:26;98932.97;;;20.00;50.61
55990;BME280;41875;55.806;38.082;2023-04-28T09:40:55;98926.81;;;20.40;50.13
55990;BME280;41875;55.806;38.082;2023-04-28T09:43:26;98920.72;;;21.66;46.87
55990;BME280;41875;55.806;38.082;2023-04-28T09:45:55;98930.88;;;21.13;48.64
55990;BME280;41875;55.806;38.082;2023-04-28T09:48:27;98930.25;;;21.23;49.47
55990;BME280;41875;55.806;38.082;2023-04-28T09:50:56;98923.22;;;21.56;47.13
55990;BME280;41875;55.806;38.082;2023-04-28T09:53:25;98923.38;;;20.98;48.97
55990;BME280;41875;55.806;38.082;2023-04-28T09:55:53;98920.84;;;21.59;45.84
55990;BME280;41875;55.806;38.082;2023-04-28T09:58:23;98916.69;;;20.60;47.80
55990;BME280;41875;55.806;38.082;2023-04-28T10:00:53;98919.06;;;20.56;48.01
55990;BME280;41875;55.806;38.082;2023-04-28T10:03:21;98915.88;;;21.17;46.87
55990;BME280;41875;55.806;38.082;2023-04-28T10:05:55;98933.34;;;21.31;46.29
55990;BME280;41875;55.806;38.082;2023-04-28T10:08:24;98925.13;;;22.12;44.69
55990;BME280;41875;55.806;38.082;2023-04-28T10:10:53;98933.22;;;22.34;44.63
55990;BME280;41875;55.806;38.082;2023-04-28T10:13:22;98928.56;;;21.68;45.68
55990;BME280;41875;55.806;38.082;2023-04-28T10:15:52;98931.88;;;21.92;45.30
55990;BME280;41875;55.806;38.082;2023-04-28T10:18:24;98933.94;;;21.16;46.87
55990;BME280;41875;55.806;38.082;2023-04-28T10:20:52;98927.81;;;21.21;47.02
55990;BME280;41875;55.806;38.082;2023-04-28T10:23:27;98931.34;;;20.52;48.68
55990;BME280;41875;55.806;38.082;2023-04-28T10:25:58;98927.03;;;19.98;49.60
55990;BME280;41875;55.806;38.082;2023-04-28T10:28:26;98948.47;;;20.34;49.22
55990;BME280;41875;55.806;38.082;2023-04-28T10:31:11;98949.31;;;20.34;50.05
55990;BME280;41875;55.806;38.082;2023-04-28T10:33:40;98949.50;;;21.14;48.91
55990;BME280;41875;55.806;38.082;2023-04-28T10:36:08;98946.91;;;21.37;48.18
55990;BME280;41875;55.806;38.082;2023-04-28T10:41:33;98951.31;;;21.94;46.86
55990;BME280;41875;55.806;38.082;2023-04-28T10:44:05;98951.16;;;21.84;46.94
55990;BME280;41875;55.806;38.082;2023-04-28T10:47:01;98955.41;;;21.80;46.92
55990;BME280;41875;55.806;38.082;2023-04-28T10:57:54;98955.63;;;21.95;46.44
55990;BME280;41875;55.806;38.082;2023-04-28T11:00:42;98954.59;;;22.18;46.06
55990;BME280;41875;55.806;38.082;2023-04-28T11:03:24;98953.44;;;22.31;46.06
55990;BME280;41875;55.806;38.082;2023-04-28T11:06:17;98947.13;;;22.03;46.18
55990;BME280;41875;55.806;38.082;2023-04-28T11:08:46;98949.19;;;21.28;47.55
55990;BME280;41875;55.806;38.082;2023-04-28T11:11:17;98949.88;;;21.52;46.66
55990;BME280;41875;55.806;38.082;2023-04-28T11:13:46;98962.56;;;21.23;47.49
55990;BME280;41875;55.806;38.082;2023-04-28T11:16:16;98957.88;;;21.01;48.00
55990;BME280;41875;55.806;38.082;2023-04-28T11:18:49;98956.38;;;21.56;47.36
55990;BME280;41875;55.806;38.082;2023-04-28T11:21:22;98956.38;;;21.90;46.20
55990;BME280;41875;55.806;38.082;2023-04-28T11:23:50;98953.63;;;21.85;46.99
55990;BME280;41875;55.806;38.082;2023-04-28T11:26:19;98954.00;;;21.94;46.59
55990;BME280;41875;55.806;38.082;2023-04-28T11:28:50;98950.34;;;21.66;46.95
55990;BME280;41875;55.806;38.082;2023-04-28T11:31:18;98952.09;;;21.26;47.35
55990;BME280;41875;55.806;38.082;2023-04-28T11:33:52;98959.25;;;20.86;49.10
55990;BME280;41875;55.806;38.082;2023-04-28T11:36:21;98955.91;;;20.96;49.37
55990;BME280;41875;55.806;38.082;2023-04-28T11:38:49;98952.84;;;20.11;52.87
55990;BME280;41875;55.806;38.082;2023-04-28T11:41:17;98951.19;;;19.86;53.26
55990;BME280;41875;55.806;38.082;2023-04-28T11:43:45;98954.38;;;19.29;55.16
55990;BME280;41875;55.806;38.082;2023-04-28T11:46:17;98954.47;;;18.92;56.11
55990;BME280;41875;55.806;38.082;2023-04-28T11:48:46;98949.56;;;18.58;58.28
55990;BME280;41875;55.806;38.082;2023-04-28T11:51:32;98954.94;;;18.39;60.23
55990;BME280;41875;55.806;38.082;2023-04-28T11:54:01;98952.44;;;18.38;60.96
55990;BME280;41875;55.806;38.082;2023-04-28T11:56:29;98946.88;;;18.58;59.99
55990;BME280;41875;55.806;38.082;2023-04-28T11:59:04;98943.75;;;18.24;61.82
55990;BME280;41875;55.806;38.082;2023-04-28T12:01:34;98945.44;;;18.00;62.75
55990;BME280;41875;55.806;38.082;2023-04-28T12:04:03;98945.06;;;17.71;63.53
55990;BME280;41875;55.806;38.082;2023-04-28T12:06:33;98944.78;;;18.04;63.30
55990;BME280;41875;55.806;38.082;2023-04-28T12:09:13;98942.53;;;18.01;63.52
55990;BME280;41875;55.806;38.082;2023-04-28T12:11:51;98951.19;;;18.59;62.41
55990;BME280;41875;55.806;38.082;2023-04-28T12:14:19;98942.78;;;19.16;59.98
55990;BME280;41875;55.806;38.082;2023-04-28T12:16:47;98942.03;;;19.28;59.89
55990;BME280;41875;55.806;38.082;2023-04-28T12:19:16;98932.34;;;19.50;60.31
55990;BME280;41875;55.806;38.082;2023-04-28T12:22:00;98934.28;;;19.19;60.64
55990;BME280;41875;55.806;38.082;2023-04-28T12:24:28;98938.44;;;19.82;58.57
55990;BME280;41875;55.806;38.082;2023-04-28T12:27:15;98935.59;;;19.41;60.76
55990;BME280;41875;55.806;38.082;2023-04-28T12:29:46;98941.63;;;20.02;57.98
55990;BME280;41875;55.806;38.082;2023-04-28T12:32:14;98938.31;;;19.53;60.44
55990;BME280;41875;55.806;38.082;2023-04-28T12:34:43;98940.22;;;18.91;61.56
55990;BME280;41875;55.806;38.082;2023-04-28T12:37:13;98928.38;;;19.41;60.22
55990;BME280;41875;55.806;38.082;2023-04-28T12:39:41;98930.81;;;19.31;60.33
55990;BME280;41875;55.806;38.082;2023-04-28T12:42:10;98924.84;;;19.29;61.10
55990;BME280;41875;55.806;38.082;2023-04-28T12:44:38;98925.00;;;19.46;59.49
55990;BME280;41875;55.806;38.082;2023-04-28T12:47:07;98930.41;;;19.03;61.28
55990;BME280;41875;55.806;38.082;2023-04-28T12:49:36;98930.66;;;19.14;60.73
55990;BME280;41875;55.806;38.082;2023-04-28T12:52:05;98933.25;;;19.21;60.18
55990;BME280;41875;55.806;38.082;2023-04-28T12:54:34;98933.75;;;19.53;59.16
55990;BME280;41875;55.806;38.082;2023-04-28T12:57:03;98930.03;;;19.66;58.01
55990;BME280;41875;55.806;38.082;2023-04-28T12:59:31;98935.00;;;19.39;59.39
55990;BME280;41875;55.806;38.082;2023-04-28T13:01:59;98935.63;;;19.53;59.28
55990;BME280;41875;55.806;38.082;2023-04-28T13:04:29;98934.66;;;19.35;59.13
55990;BME280;41875;55.806;38.082;2023-04-28T13:06:58;98916.44;;;19.25;58.91
55990;BME280;41875;55.806;38.082;2023-04-28T13:09:26;98931.69;;;19.13;59.52
55990;BME280;41875;55.806;38.082;2023-04-28T13:11:55;98932.44;;;19.20;59.31
55990;BME280;41875;55.806;38.082;2023-04-28T13:14:24;98937.13;;;18.94;60.99
55990;BME280;41875;55.806;38.082;2023-04-28T13:16:53;98937.41;;;19.04;59.94